Time;durP1;ratioP1;P1;durP2;ratioP2;P2;SDS_P1;SDS_P2;PMS_P1;PMS_P2;Temp;Humidity;BMP_temperature;BMP_pressure;BME280_temperature;BME280_humidity;BME280_pressure;Samples;Min_cycle;Max_cycle;Signal;HPM_P1;HPM_P2
2021/03/04 00:00:13;;;;;;;0.82;0.70;;;15.30;59.90;;;;;;5090028;28;20038;-34
2021/03/04 00:02:40;;;;;;;0.70;0.60;;;15.20;59.60;;;;;;5091098;28;20035;-34
2021/03/04 00:05:07;;;;;;;0.60;0.60;;;15.30;59.70;;;;;;5070838;28;20032;-34
2021/03/04 00:07:34;;;;;;;0.63;0.63;;;15.20;59.60;;;;;;5090658;28;20060;-34
2021/03/04 00:10:00;;;;;;;0.90;0.70;;;15.20;59.60;;;;;;5088635;28;20100;-34
2021/03/04 00:12:26;;;;;;;0.85;0.73;;;15.20;59.60;;;;;;5088915;28;20036;-34
2021/03/04 00:14:53;;;;;;;0.82;0.60;;;15.20;59.60;;;;;;5092050;28;20028;-34
2021/03/04 00:17:19;;;;;;;0.98;0.70;;;15.20;59.50;;;;;;5086034;28;20020;-34
2021/03/04 00:19:45;;;;;;;1.75;0.88;;;15.20;59.50;;;;;;5088259;28;20046;-34
2021/03/04 00:22:11;;;;;;;0.90;0.60;;;15.20;59.40;;;;;;5073661;28;20039;-34
2021/03/04 00:24:38;;;;;;;1.30;0.83;;;15.20;59.50;;;;;;5081211;28;20111;-34
2021/03/04 00:27:04;;;;;;;0.88;0.80;;;15.20;59.40;;;;;;5084810;28;20712;-34
2021/03/04 00:29:30;;;;;;;1.23;0.85;;;15.20;59.50;;;;;;5087685;28;20060;-34
2021/03/04 00:31:56;;;;;;;0.90;0.70;;;15.20;59.50;;;;;;5082731;28;20043;-36
2021/03/04 00:34:23;;;;;;;0.90;0.80;;;15.10;59.30;;;;;;5084277;28;20332;-33
2021/03/04 00:36:49;;;;;;;1.27;0.77;;;15.20;59.30;;;;;;5088573;28;20025;-34
2021/03/04 00:39:16;;;;;;;1.25;0.93;;;15.10;59.30;;;;;;5089148;28;20032;-34
2021/03/04 00:41:42;;;;;;;2.63;1.10;;;15.10;59.30;;;;;;5093448;28;20024;-34
2021/03/04 00:44:08;;;;;;;1.83;0.90;;;15.10;59.40;;;;;;5070499;28;20028;-34
2021/03/04 00:46:35;;;;;;;2.80;0.90;;;15.10;59.40;;;;;;5091024;28;20031;-34
2021/03/04 00:49:01;;;;;;;1.23;0.70;;;15.10;59.40;;;;;;5090040;28;20060;-34
2021/03/04 00:51:28;;;;;;;1.50;1.05;;;15.10;59.60;;;;;;5090649;28;20102;-34
2021/03/04 00:53:54;;;;;;;1.25;0.65;;;15.00;59.30;;;;;;5093300;28;20071;-34
2021/03/04 00:56:21;;;;;;;1.20;0.70;;;15.10;59.40;;;;;;5095874;28;20031;-33
2021/03/04 00:58:47;;;;;;;1.65;0.60;;;15.00;59.30;;;;;;5082398;28;20109;-34
2021/03/04 01:01:17;;;;;;;1.33;0.80;;;15.00;59.10;;;;;;5087242;28;20028;-34
2021/03/04 01:03:43;;;;;;;1.38;0.90;;;15.00;59.20;;;;;;5091855;28;20024;-34
2021/03/04 01:06:10;;;;;;;0.60;0.60;;;15.00;59.00;;;;;;5091366;28;20037;-33
2021/03/04 01:08:37;;;;;;;1.10;0.75;;;15.00;59.10;;;;;;5093524;28;20032;-34
2021/03/04 01:11:03;;;;;;;1.75;1.00;;;15.00;59.10;;;;;;5096057;28;20081;-34
2021/03/04 01:13:29;;;;;;;2.08;1.02;;;14.90;59.10;;;;;;5096136;28;20063;-34
2021/03/04 01:15:55;;;;;;;1.10;0.85;;;14.90;59.10;;;;;;5073527;28;20028;-34
2021/03/04 01:18:21;;;;;;;1.10;0.68;;;14.90;59.00;;;;;;5090728;28;20067;-33
2021/03/04 01:20:48;;;;;;;1.52;1.08;;;14.90;59.00;;;;;;5093229;28;20044;-34
2021/03/04 01:23:14;;;;;;;0.93;0.85;;;14.90;58.90;;;;;;5069907;28;20054;-34
2021/03/04 01:25:40;;;;;;;0.70;0.70;;;14.90;58.90;;;;;;5100526;28;20516;-33
2021/03/04 01:28:06;;;;;;;1.02;0.73;;;14.80;58.90;;;;;;5093461;28;20052;-33
2021/03/04 01:30:33;;;;;;;1.20;0.80;;;14.80;58.90;;;;;;5091024;28;20035;-34
2021/03/04 01:32:59;;;;;;;1.55;0.70;;;14.80;58.80;;;;;;5076240;28;20144;-34
2021/03/04 01:35:26;;;;;;;2.08;0.70;;;14.80;58.70;;;;;;5075843;28;20029;-34
2021/03/04 01:37:54;;;;;;;1.48;0.80;;;14.80;58.60;;;;;;5095172;28;20138;-34
2021/03/04 01:40:23;;;;;;;1.55;0.80;;;14.80;58.70;;;;;;5098241;28;20027;-34
2021/03/04 01:42:52;;;;;;;1.20;0.70;;;14.70;58.80;;;;;;5089049;28;20028;-34
2021/03/04 01:45:19;;;;;;;0.80;0.80;;;14.80;58.70;;;;;;5088206;28;20088;-34
2021/03/04 01:47:53;;;;;;;1.50;1.00;;;14.80;58.50;;;;;;5094859;28;20032;-34
2021/03/04 01:50:20;;;;;;;1.20;0.80;;;14.70;58.40;;;;;;5074841;28;20031;-34
2021/03/04 01:52:47;;;;;;;1.02;0.90;;;14.70;58.30;;;;;;5096466;28;20055;-34
2021/03/04 01:55:14;;;;;;;1.05;0.80;;;14.70;58.80;;;;;;5062830;28;20580;-33
2021/03/04 01:57:40;;;;;;;1.00;0.90;;;14.70;58.20;;;;;;5077164;28;20028;-34
2021/03/04 02:00:09;;;;;;;0.77;0.70;;;14.70;58.30;;;;;;5060396;28;20024;-34
2021/03/04 02:02:35;;;;;;;1.13;0.80;;;14.70;58.30;;;;;;5089532;28;20301;-34
2021/03/04 02:05:03;;;;;;;0.90;0.82;;;14.70;58.30;;;;;;5089077;28;20429;-33
2021/03/04 02:07:54;;;;;;;1.17;0.88;;;14.60;58.30;;;;;;5087985;28;20082;-35
2021/03/04 02:10:36;;;;;;;0.95;0.80;;;14.60;58.30;;;;;;5091521;28;20052;-34
2021/03/04 02:13:17;;;;;;;0.82;0.70;;;14.60;58.40;;;;;;5092928;28;20032;-34
2021/03/04 02:16:06;;;;;;;0.75;0.70;;;14.60;58.50;;;;;;5100108;28;20028;-34
2021/03/04 02:18:35;;;;;;;1.10;0.70;;;14.60;58.30;;;;;;5076086;28;20722;-34
2021/03/04 02:21:12;;;;;;;1.38;0.90;;;14.60;58.30;;;;;;5072384;28;20051;-34
2021/03/04 02:23:41;;;;;;;1.02;0.60;;;14.60;58.40;;;;;;5088746;28;20039;-34
2021/03/04 02:26:32;;;;;;;0.80;0.80;;;14.50;58.40;;;;;;5079509;28;20091;-34
2021/03/04 02:28:59;;;;;;;0.70;0.70;;;14.60;58.40;;;;;;5070269;28;20552;-34
2021/03/04 02:31:26;;;;;;;1.23;0.90;;;14.50;58.50;;;;;;5060132;28;20051;-33
2021/03/04 02:33:52;;;;;;;1.23;0.75;;;14.50;58.50;;;;;;5057291;28;20044;-34
2021/03/04 02:36:18;;;;;;;1.25;0.70;;;14.40;58.40;;;;;;5046328;28;20029;-34
2021/03/04 02:38:44;;;;;;;0.93;0.80;;;14.50;58.60;;;;;;5055608;28;20032;-33
2021/03/04 02:41:11;;;;;;;0.88;0.73;;;14.40;58.50;;;;;;5087398;28;20529;-34
2021/03/04 02:43:37;;;;;;;1.77;0.80;;;14.40;58.60;;;;;;5058093;28;20043;-34
2021/03/04 02:46:03;;;;;;;1.35;0.88;;;14.40;58.50;;;;;;5063162;28;20024;-34
2021/03/04 02:48:31;;;;;;;0.90;0.70;;;14.40;58.50;;;;;;5069785;28;20028;-34
2021/03/04 02:50:57;;;;;;;0.82;0.73;;;14.30;58.50;;;;;;5084913;28;20071;-34
2021/03/04 02:53:23;;;;;;;0.85;0.80;;;14.30;58.50;;;;;;5059150;28;20515;-34
2021/03/04 02:55:50;;;;;;;0.80;0.80;;;14.30;59.10;;;;;;5084609;28;20062;-33
2021/03/04 02:58:16;;;;;;;1.10;0.77;;;14.30;58.50;;;;;;5077410;28;20032;-34
2021/03/04 03:00:42;;;;;;;1.23;0.90;;;14.30;58.50;;;;;;5076970;28;20020;-33
2021/03/04 03:03:11;;;;;;;1.08;0.80;;;14.30;58.40;;;;;;5069081;28;20427;-33
2021/03/04 03:05:37;;;;;;;1.23;0.90;;;14.30;58.40;;;;;;5087054;28;20024;-33
2021/03/04 03:08:04;;;;;;;0.80;0.80;;;14.30;58.40;;;;;;5070430;28;20084;-34
2021/03/04 03:10:30;;;;;;;1.27;0.70;;;14.30;58.40;;;;;;5071703;28;20032;-33
2021/03/04 03:12:57;;;;;;;1.33;1.05;;;14.30;58.40;;;;;;5071199;28;20071;-33
2021/03/04 03:15:24;;;;;;;1.13;0.88;;;14.20;58.40;;;;;;5068600;28;20028;-34
2021/03/04 03:17:50;;;;;;;1.37;0.90;;;14.20;58.40;;;;;;5089455;28;20038;-34
2021/03/04 03:20:18;;;;;;;1.30;0.90;;;14.20;58.50;;;;;;5089660;28;21114;-33
2021/03/04 03:22:45;;;;;;;1.10;0.90;;;14.20;58.50;;;;;;5091627;28;20044;-34
2021/03/04 03:25:12;;;;;;;1.00;0.90;;;14.20;58.50;;;;;;5073391;28;20008;-33
2021/03/04 03:27:38;;;;;;;0.90;0.82;;;14.10;58.70;;;;;;5084484;28;20691;-33
2021/03/04 03:30:06;;;;;;;1.73;1.00;;;14.10;58.70;;;;;;5087180;28;20024;-33
2021/03/04 03:32:32;;;;;;;1.38;0.90;;;14.10;58.60;;;;;;5088698;28;20040;-33
2021/03/04 03:35:00;;;;;;;1.77;1.00;;;14.10;58.70;;;;;;5082011;28;20013;-33
2021/03/04 03:37:26;;;;;;;0.82;0.80;;;14.10;58.60;;;;;;5068816;28;20037;-33
2021/03/04 03:39:53;;;;;;;1.58;0.98;;;14.10;58.60;;;;;;5072440;28;20074;-34
2021/03/04 03:42:20;;;;;;;1.45;0.80;;;14.10;58.70;;;;;;5088264;28;20035;-34
2021/03/04 03:44:47;;;;;;;1.00;0.82;;;14.00;58.70;;;;;;5038826;28;20047;-34
2021/03/04 03:47:13;;;;;;;0.68;0.63;;;14.00;58.80;;;;;;5076581;28;20030;-34
2021/03/04 03:49:39;;;;;;;1.20;0.98;;;14.00;59.40;;;;;;5053259;28;20068;-33
2021/03/04 03:52:06;;;;;;;1.38;1.08;;;14.00;58.90;;;;;;5071029;28;20331;-34
2021/03/04 03:54:32;;;;;;;1.13;0.85;;;13.90;58.80;;;;;;5075660;28;20024;-33
2021/03/04 03:56:59;;;;;;;2.40;0.80;;;13.90;58.60;;;;;;5076611;28;20050;-34
2021/03/04 03:59:25;;;;;;;1.20;0.90;;;13.90;58.80;;;;;;5053090;28;20272;-34
2021/03/04 04:01:51;;;;;;;1.05;0.88;;;13.90;58.80;;;;;;5054719;28;20035;-34
2021/03/04 04:04:18;;;;;;;0.77;0.70;;;13.90;58.90;;;;;;5070782;28;20082;-33
2021/03/04 04:06:44;;;;;;;0.90;0.70;;;13.80;58.90;;;;;;5069953;28;20082;-34
2021/03/04 04:09:10;;;;;;;1.23;0.90;;;13.80;59.00;;;;;;5068874;28;20488;-34
2021/03/04 04:11:37;;;;;;;1.15;0.90;;;13.80;59.00;;;;;;5091031;28;20491;-34
2021/03/04 04:14:03;;;;;;;0.77;0.77;;;13.80;59.00;;;;;;5083543;28;20047;-34
2021/03/04 04:16:29;;;;;;;0.70;0.70;;;13.80;59.00;;;;;;5071305;28;20028;-34
2021/03/04 04:18:56;;;;;;;0.98;0.80;;;13.80;59.30;;;;;;5070368;28;20036;-34
2021/03/04 04:21:22;;;;;;;1.92;1.00;;;13.80;59.10;;;;;;5049332;28;20382;-33
2021/03/04 04:23:48;;;;;;;1.15;0.95;;;13.80;59.30;;;;;;5076130;28;20035;-34
2021/03/04 04:26:15;;;;;;;1.77;0.90;;;13.70;59.20;;;;;;5074922;28;20050;-33
2021/03/04 04:28:41;;;;;;;2.60;1.20;;;13.70;59.30;;;;;;5074070;28;20036;-33
2021/03/04 04:31:07;;;;;;;1.77;0.88;;;13.70;59.30;;;;;;5072329;28;20249;-34
2021/03/04 04:33:33;;;;;;;1.50;0.95;;;13.60;59.40;;;;;;5084646;28;20062;-33
2021/03/04 04:36:00;;;;;;;1.42;0.90;;;13.60;59.50;;;;;;5088674;28;20024;-33
2021/03/04 04:38:26;;;;;;;1.17;0.80;;;13.60;59.60;;;;;;5088934;28;20056;-33
2021/03/04 04:40:53;;;;;;;1.40;1.10;;;13.60;59.60;;;;;;5085625;28;20024;-33
2021/03/04 04:43:19;;;;;;;0.98;0.88;;;13.60;59.50;;;;;;5084245;28;20036;-34
2021/03/04 04:45:45;;;;;;;1.63;1.00;;;13.60;59.60;;;;;;5091519;28;20032;-34
2021/03/04 04:48:11;;;;;;;1.73;1.10;;;13.50;59.60;;;;;;5095330;28;20736;-33
2021/03/04 04:50:37;;;;;;;1.15;1.00;;;13.50;59.60;;;;;;5071575;28;20047;-34
2021/03/04 04:53:03;;;;;;;1.65;1.00;;;13.50;59.60;;;;;;5093829;28;20043;-34
2021/03/04 04:55:30;;;;;;;0.95;0.90;;;13.50;59.60;;;;;;5091929;28;20028;-33
2021/03/04 04:57:56;;;;;;;1.37;1.00;;;13.50;59.70;;;;;;5089519;28;20032;-33
2021/03/04 05:00:22;;;;;;;1.48;1.00;;;13.50;59.60;;;;;;5090157;28;20028;-33
2021/03/04 05:02:49;;;;;;;1.20;0.90;;;13.50;59.70;;;;;;5072473;28;20032;-33
2021/03/04 05:05:15;;;;;;;1.65;0.95;;;13.50;59.80;;;;;;5091412;28;20020;-33
2021/03/04 05:07:41;;;;;;;0.90;0.80;;;13.50;59.80;;;;;;5090020;28;20056;-33
2021/03/04 05:10:09;;;;;;;1.33;1.00;;;13.40;59.80;;;;;;5089821;28;20036;-33
2021/03/04 05:12:35;;;;;;;2.25;1.08;;;13.40;59.70;;;;;;5090148;28;20064;-33
2021/03/04 05:15:03;;;;;;;1.20;0.93;;;13.40;59.80;;;;;;5087512;28;20074;-33
2021/03/04 05:17:29;;;;;;;1.48;0.90;;;13.40;59.70;;;;;;5090659;28;20854;-33
2021/03/04 05:19:55;;;;;;;1.80;1.20;;;13.40;59.70;;;;;;5088292;28;20024;-33
2021/03/04 05:22:21;;;;;;;1.13;0.85;;;13.40;59.80;;;;;;5090720;28;20112;-33
2021/03/04 05:24:47;;;;;;;1.20;0.85;;;13.30;59.80;;;;;;5085447;28;20020;-33
2021/03/04 05:27:14;;;;;;;1.90;1.05;;;13.30;59.80;;;;;;5091566;28;20063;-33
2021/03/04 05:29:40;;;;;;;1.50;1.10;;;13.30;59.90;;;;;;5088924;28;20055;-34
2021/03/04 05:32:07;;;;;;;1.08;0.98;;;13.30;59.80;;;;;;5089257;28;20039;-33
2021/03/04 05:34:33;;;;;;;1.13;0.95;;;13.30;59.80;;;;;;5087605;28;20054;-33
2021/03/04 05:37:01;;;;;;;3.00;1.20;;;13.30;59.80;;;;;;5082980;28;20028;-33
2021/03/04 05:39:27;;;;;;;1.67;1.20;;;13.30;60.00;;;;;;5091440;28;20028;-33
2021/03/04 05:41:55;;;;;;;2.33;1.30;;;13.20;59.90;;;;;;5088532;28;20132;-34
2021/03/04 05:44:21;;;;;;;1.60;1.13;;;13.20;59.90;;;;;;5067546;28;20032;-34
2021/03/04 05:46:47;;;;;;;1.33;1.13;;;13.20;59.90;;;;;;5056786;28;20047;-34
2021/03/04 05:49:14;;;;;;;1.48;1.13;;;13.20;59.90;;;;;;5090256;28;20051;-33
2021/03/04 05:51:41;;;;;;;1.30;1.00;;;13.20;59.80;;;;;;5078639;28;20024;-34
2021/03/04 05:54:07;;;;;;;2.00;0.93;;;13.20;59.90;;;;;;5077435;28;20052;-33
2021/03/04 05:56:36;;;;;;;1.63;1.05;;;13.20;59.90;;;;;;5092356;28;20029;-34
2021/03/04 05:59:02;;;;;;;1.45;1.00;;;13.20;59.80;;;;;;5073974;28;20025;-33
2021/03/04 06:01:29;;;;;;;1.42;0.98;;;13.10;59.80;;;;;;5056306;28;20059;-33
2021/03/04 06:03:55;;;;;;;1.40;1.30;;;13.10;59.90;;;;;;5074218;28;20020;-33
2021/03/04 06:06:21;;;;;;;1.30;1.00;;;13.10;60.00;;;;;;5097351;28;20692;-34
2021/03/04 06:08:48;;;;;;;1.45;1.23;;;13.10;59.90;;;;;;5087087;28;20061;-33
2021/03/04 06:11:14;;;;;;;1.50;1.17;;;13.10;60.00;;;;;;5091261;28;20024;-33
2021/03/04 06:13:40;;;;;;;1.92;1.17;;;13.10;60.00;;;;;;5076389;28;20036;-33
2021/03/04 06:16:06;;;;;;;1.05;0.93;;;13.10;60.00;;;;;;5096235;28;20036;-33
2021/03/04 06:18:43;;;;;;;1.30;1.02;;;13.10;60.00;;;;;;5085218;28;20036;-34
2021/03/04 06:21:22;;;;;;;1.45;0.93;;;13.00;60.10;;;;;;5097610;28;20109;-33
2021/03/04 06:23:48;;;;;;;1.17;1.00;;;13.00;60.20;;;;;;5093266;28;20032;-34
2021/03/04 06:26:24;;;;;;;1.70;1.35;;;13.00;60.20;;;;;;5052495;28;20092;-34
2021/03/04 06:28:51;;;;;;;1.70;1.20;;;13.00;60.20;;;;;;5088501;28;20021;-34
2021/03/04 06:31:20;;;;;;;1.88;1.20;;;13.00;60.40;;;;;;5096336;28;20040;-33
2021/03/04 06:33:46;;;;;;;1.98;1.15;;;13.00;60.10;;;;;;5091956;28;20040;-34
2021/03/04 06:36:16;;;;;;;2.38;1.30;;;13.00;59.90;;;;;;5082013;28;20028;-33
2021/03/04 06:38:56;;;;;;;1.63;1.20;;;13.00;59.80;;;;;;5093532;28;20083;-40
2021/03/04 06:41:22;;;;;;;1.77;1.10;;;13.00;59.70;;;;;;5069587;28;20084;-33
2021/03/04 06:43:58;;;;;;;3.50;1.25;;;13.10;59.70;;;;;;5094248;28;20024;-34
2021/03/04 06:46:25;;;;;;;1.80;1.00;;;13.10;59.70;;;;;;5068484;28;20037;-34
2021/03/04 06:48:51;;;;;;;2.33;1.05;;;13.10;59.70;;;;;;5075330;28;20028;-33
2021/03/04 06:51:18;;;;;;;3.47;1.10;;;13.10;59.70;;;;;;5090212;28;20035;-33
2021/03/04 06:53:50;;;;;;;2.10;1.13;;;13.10;59.70;;;;;;5087998;28;21928;-33
2021/03/04 06:56:27;;;;;;;2.55;1.30;;;13.10;59.90;;;;;;5089397;28;20033;-33
2021/03/04 06:59:01;;;;;;;1.40;1.05;;;13.10;59.80;;;;;;5087114;28;20032;-33
2021/03/04 07:01:29;;;;;;;2.33;1.30;;;13.10;59.80;;;;;;5073864;28;20029;-33
2021/03/04 07:03:55;;;;;;;2.03;1.20;;;13.20;59.90;;;;;;5095419;28;20027;-34
2021/03/04 07:06:25;;;;;;;2.38;1.17;;;13.20;60.00;;;;;;5094659;28;20047;-34
2021/03/04 07:08:52;;;;;;;2.22;1.20;;;13.20;60.00;;;;;;5078031;28;20040;-34
2021/03/04 07:11:25;;;;;;;;;;;13.20;60.00;;;;;;5075648;28;20761;-33
2021/03/04 07:13:52;;;;;;;1.85;1.00;;;13.20;60.10;;;;;;5073471;28;19987;-33
2021/03/04 07:16:28;;;;;;;1.85;1.00;;;13.20;60.20;;;;;;5089315;28;20016;-34
2021/03/04 07:18:58;;;;;;;1.70;1.10;;;13.20;60.30;;;;;;5091992;28;20037;-34
2021/03/04 07:21:28;;;;;;;2.05;1.15;;;13.20;60.60;;;;;;5095592;28;20064;-33
2021/03/04 07:23:54;;;;;;;1.65;1.10;;;13.20;60.60;;;;;;5092280;28;20024;-33
2021/03/04 07:26:20;;;;;;;1.83;1.00;;;13.20;60.80;;;;;;5091286;28;20038;-33
2021/03/04 07:28:47;;;;;;;2.10;1.20;;;13.30;60.90;;;;;;5089154;28;20029;-33
2021/03/04 07:31:14;;;;;;;2.47;1.23;;;13.30;61.00;;;;;;5088755;28;20024;-33
2021/03/04 07:33:48;;;;;;;1.50;1.08;;;13.30;60.90;;;;;;5091724;28;20068;-33
2021/03/04 07:36:18;;;;;;;2.30;1.13;;;13.30;61.00;;;;;;5081596;28;20083;-33
2021/03/04 07:38:59;;;;;;;2.03;1.08;;;13.30;61.10;;;;;;5072811;28;20088;-33
2021/03/04 07:41:41;;;;;;;1.95;1.10;;;13.30;61.10;;;;;;5084073;28;20023;-33
2021/03/04 07:44:08;;;;;;;1.85;1.30;;;13.30;61.20;;;;;;5089861;28;20071;-33
2021/03/04 07:46:55;;;;;;;1.70;0.90;;;13.30;61.40;;;;;;5085040;28;20036;-33
2021/03/04 07:49:41;;;;;;;2.03;1.10;;;13.30;61.30;;;;;;5087937;28;20036;-34
2021/03/04 07:52:08;;;;;;;1.50;1.02;;;13.40;61.40;;;;;;5076563;28;20074;-34
2021/03/04 07:54:34;;;;;;;1.70;0.80;;;13.40;61.50;;;;;;5095075;28;20031;-34
2021/03/04 07:57:11;;;;;;;1.30;1.05;;;13.40;61.50;;;;;;5095619;28;20017;-33
2021/03/04 07:59:56;;;;;;;2.53;1.10;;;13.40;61.70;;;;;;5090664;28;20039;-33
2021/03/04 08:02:27;;;;;;;1.63;1.05;;;13.40;61.60;;;;;;5067753;28;20125;-33
2021/03/04 08:05:14;;;;;;;1.48;1.17;;;13.40;61.80;;;;;;5085966;28;20056;-43
2021/03/04 08:07:46;;;;;;;2.65;1.10;;;13.40;61.80;;;;;;5091038;28;20119;-33
2021/03/04 08:10:14;;;;;;;2.00;1.20;;;13.40;61.90;;;;;;5089472;28;20059;-34
2021/03/04 08:12:58;;;;;;;2.40;1.00;;;13.40;61.90;;;;;;5087409;28;20037;-33
2021/03/04 08:15:35;;;;;;;2.50;1.08;;;13.50;61.90;;;;;;5064268;28;20024;-33
2021/03/04 08:18:02;;;;;;;1.80;1.13;;;13.50;61.90;;;;;;5093666;28;20045;-33
2021/03/04 08:20:28;;;;;;;1.30;1.00;;;13.50;62.10;;;;;;5093595;28;20028;-34
2021/03/04 08:22:56;;;;;;;4.13;1.98;;;13.50;62.40;;;;;;5087373;28;20020;-34
2021/03/04 08:25:30;;;;;;;1.80;1.00;;;13.50;62.60;;;;;;5095320;28;20099;-33
2021/03/04 08:27:56;;;;;;;1.73;1.30;;;13.50;62.70;;;;;;5086063;28;20028;-34
2021/03/04 08:30:32;;;;;;;1.40;1.10;;;13.50;62.90;;;;;;5094739;28;20024;-33
2021/03/04 08:33:06;;;;;;;3.15;1.17;;;13.60;63.00;;;;;;5084108;28;20043;-33
2021/03/04 08:35:37;;;;;;;2.22;1.00;;;13.60;63.10;;;;;;5066819;28;20063;-33
2021/03/04 08:38:10;;;;;;;2.28;1.10;;;13.60;63.00;;;;;;5091547;28;20028;-33
2021/03/04 08:41:03;;;;;;;2.60;0.98;;;13.60;63.10;;;;;;5088423;28;20084;-38
2021/03/04 08:43:29;;;;;;;2.72;1.27;;;13.60;63.00;;;;;;5085402;28;20104;-37
2021/03/04 08:45:57;;;;;;;2.40;1.10;;;13.70;63.10;;;;;;5087183;28;20028;-33
2021/03/04 08:48:23;;;;;;;;;;;13.70;63.00;;;;;;5084724;28;20638;-33
2021/03/04 08:50:51;;;;;;;1.98;1.08;;;13.70;63.10;;;;;;5071805;28;19917;-33
2021/03/04 08:53:18;;;;;;;1.60;1.15;;;13.70;63.00;;;;;;5091071;28;20040;-34
2021/03/04 08:55:46;;;;;;;1.67;0.95;;;13.70;62.90;;;;;;5072717;28;20036;-33
2021/03/04 08:58:12;;;;;;;;;;;13.70;63.00;;;;;;5090733;28;20059;-32
2021/03/04 09:00:38;;;;;;;1.85;1.08;;;13.70;63.10;;;;;;5089310;28;20783;-33
2021/03/04 09:03:10;;;;;;;1.38;1.00;;;13.70;63.10;;;;;;5088114;28;20051;-33
2021/03/04 09:05:38;;;;;;;2.88;1.25;;;13.70;63.00;;;;;;5088878;28;20028;-33
2021/03/04 09:08:11;;;;;;;1.15;0.98;;;13.70;62.80;;;;;;5085378;28;20036;-34
2021/03/04 09:10:52;;;;;;;1.40;1.15;;;13.80;63.00;;;;;;5083527;28;20032;-33
2021/03/04 09:13:25;;;;;;;1.27;0.90;;;13.80;63.00;;;;;;5080359;28;20040;-33
2021/03/04 09:15:54;;;;;;;1.40;0.93;;;13.80;62.90;;;;;;5091497;28;20024;-33
2021/03/04 09:18:20;;;;;;;1.13;0.85;;;13.80;62.90;;;;;;5068951;28;20035;-33
2021/03/04 09:20:53;;;;;;;1.10;1.00;;;13.80;62.80;;;;;;5092243;28;20111;-34
2021/03/04 09:23:20;;;;;;;1.60;1.00;;;13.80;62.80;;;;;;5084163;28;20028;-33
2021/03/04 09:25:47;;;;;;;1.63;1.10;;;13.80;62.80;;;;;;5094398;28;20046;-34
2021/03/04 09:28:14;;;;;;;1.65;1.10;;;13.80;62.70;;;;;;5068162;28;20409;-33
2021/03/04 09:30:40;;;;;;;1.65;1.08;;;13.90;62.70;;;;;;5069241;28;20032;-33
2021/03/04 09:33:20;;;;;;;1.55;1.05;;;13.90;62.60;;;;;;5093453;28;20042;-34
2021/03/04 09:35:57;;;;;;;1.73;1.20;;;13.90;62.60;;;;;;5089289;28;20028;-33
2021/03/04 09:38:24;;;;;;;1.88;1.20;;;13.90;62.50;;;;;;5083670;28;20043;-34
2021/03/04 09:40:51;;;;;;;1.90;1.00;;;13.90;62.50;;;;;;5090537;28;20025;-33
2021/03/04 09:43:18;;;;;;;2.13;1.13;;;13.90;62.40;;;;;;5084776;28;20078;-33
2021/03/04 09:45:48;;;;;;;1.10;0.95;;;14.00;62.50;;;;;;5088465;28;20025;-33
2021/03/04 09:48:14;;;;;;;3.50;1.13;;;14.00;62.50;;;;;;5094421;28;20483;-33
2021/03/04 09:50:51;;;;;;;1.77;1.15;;;14.00;62.50;;;;;;5088804;28;20135;-34
2021/03/04 09:53:17;;;;;;;1.55;1.15;;;14.00;62.50;;;;;;5090900;28;20041;-33
2021/03/04 09:55:45;;;;;;;1.83;1.10;;;14.00;62.50;;;;;;5087229;28;20029;-33
2021/03/04 09:58:15;;;;;;;1.27;0.80;;;14.00;62.50;;;;;;5071497;28;20027;-33
2021/03/04 10:00:45;;;;;;;1.25;0.90;;;14.00;62.30;;;;;;5090020;28;20670;-33
2021/03/04 10:03:13;;;;;;;1.20;0.95;;;14.00;62.40;;;;;;5090076;28;20020;-33
2021/03/04 10:05:49;;;;;;;2.00;0.98;;;14.00;62.40;;;;;;5093322;28;20036;-34
2021/03/04 10:08:16;;;;;;;1.73;1.15;;;14.10;62.40;;;;;;5095763;28;20056;-33
2021/03/04 10:10:43;;;;;;;1.58;1.25;;;14.10;62.40;;;;;;5073908;28;20033;-33
2021/03/04 10:13:09;;;;;;;1.10;0.93;;;14.00;62.30;;;;;;5086654;28;20040;-33
2021/03/04 10:15:38;;;;;;;1.83;1.20;;;14.00;62.20;;;;;;5095992;28;20032;-33
2021/03/04 10:18:11;;;;;;;1.42;1.00;;;14.10;62.30;;;;;;5083746;28;20058;-33
2021/03/04 10:20:40;;;;;;;1.55;1.25;;;14.10;62.20;;;;;;5090621;28;20028;-34
2021/03/04 10:23:06;;;;;;;1.50;1.02;;;14.10;62.30;;;;;;5098363;28;20028;-33
2021/03/04 10:25:32;;;;;;;1.50;1.13;;;14.10;62.30;;;;;;5091315;28;20025;-34
2021/03/04 10:27:59;;;;;;;1.15;0.90;;;14.10;62.20;;;;;;5095567;28;20055;-34
2021/03/04 10:30:26;;;;;;;1.97;1.10;;;14.10;62.30;;;;;;5072586;28;20059;-33
2021/03/04 10:32:52;;;;;;;1.08;0.93;;;14.10;62.10;;;;;;5088851;28;20292;-34
2021/03/04 10:35:19;;;;;;;1.57;1.00;;;14.10;62.10;;;;;;5093947;28;20033;-33
2021/03/04 10:37:45;;;;;;;1.85;1.10;;;14.20;62.10;;;;;;5089962;28;20488;-34
2021/03/04 10:40:12;;;;;;;1.00;0.82;;;14.10;62.00;;;;;;5092024;28;20025;-34
2021/03/04 10:42:39;;;;;;;1.00;0.80;;;14.10;62.00;;;;;;5089530;28;20059;-33
2021/03/04 10:45:06;;;;;;;1.25;0.95;;;14.20;62.00;;;;;;5096046;28;20031;-33
2021/03/04 10:47:32;;;;;;;1.80;1.13;;;14.20;62.00;;;;;;5094031;28;20040;-32
2021/03/04 10:49:59;;;;;;;1.75;1.13;;;14.20;62.00;;;;;;5090906;28;20020;-33
2021/03/04 10:52:25;;;;;;;1.30;0.82;;;14.20;61.90;;;;;;5095563;28;20476;-33
2021/03/04 10:54:52;;;;;;;1.67;1.20;;;14.20;61.90;;;;;;5089894;28;20051;-34
2021/03/04 10:57:18;;;;;;;2.08;1.00;;;14.20;61.90;;;;;;5097455;28;20051;-34
2021/03/04 10:59:44;;;;;;;1.70;1.00;;;14.20;62.00;;;;;;5095903;28;20039;-33
2021/03/04 11:02:10;;;;;;;1.00;0.90;;;14.20;61.90;;;;;;5089082;28;20119;-38
2021/03/04 11:04:37;;;;;;;0.90;0.80;;;14.30;61.90;;;;;;5089964;28;20067;-33
2021/03/04 11:07:03;;;;;;;1.92;1.10;;;14.30;61.80;;;;;;5087400;28;20549;-34
2021/03/04 11:09:29;;;;;;;1.73;1.17;;;14.30;61.80;;;;;;5090652;28;20060;-33
2021/03/04 11:11:55;;;;;;;1.25;0.82;;;14.30;61.70;;;;;;5072335;28;20028;-33
2021/03/04 11:14:21;;;;;;;1.13;0.90;;;14.30;61.60;;;;;;5071956;28;20032;-33
2021/03/04 11:16:47;;;;;;;1.42;0.90;;;14.30;61.60;;;;;;5092965;28;20032;-34
2021/03/04 11:19:14;;;;;;;1.40;0.85;;;14.30;61.60;;;;;;5089536;28;20024;-33
2021/03/04 11:21:42;;;;;;;1.52;1.00;;;14.30;61.50;;;;;;5089923;28;20095;-34
2021/03/04 11:24:08;;;;;;;0.90;0.80;;;14.30;61.60;;;;;;5095033;28;20021;-34
2021/03/04 11:26:38;;;;;;;1.17;0.90;;;14.40;61.60;;;;;;5084715;28;20493;-33
2021/03/04 11:29:05;;;;;;;1.52;0.90;;;14.40;61.50;;;;;;5094889;28;20036;-34
2021/03/04 11:31:32;;;;;;;1.73;0.88;;;14.40;61.50;;;;;;5087645;28;20024;-34
2021/03/04 11:33:59;;;;;;;1.25;1.10;;;14.40;61.50;;;;;;5095643;28;20066;-34
2021/03/04 11:36:25;;;;;;;1.33;0.93;;;14.40;61.50;;;;;;5082754;28;20043;-34
2021/03/04 11:38:51;;;;;;;1.20;0.87;;;14.40;61.50;;;;;;5086708;28;20032;-33
2021/03/04 11:41:18;;;;;;;0.88;0.82;;;14.40;61.50;;;;;;5089087;28;20020;-33
2021/03/04 11:43:44;;;;;;;1.20;0.90;;;14.40;61.40;;;;;;5099473;28;20115;-33
2021/03/04 11:46:11;;;;;;;1.27;0.80;;;14.40;61.50;;;;;;5092187;28;20028;-33
2021/03/04 11:48:37;;;;;;;1.00;0.90;;;14.40;61.50;;;;;;5095932;28;20016;-34
2021/03/04 11:51:04;;;;;;;1.05;0.80;;;14.40;61.50;;;;;;5076297;28;20576;-34
2021/03/04 11:53:30;;;;;;;1.33;0.80;;;14.40;61.50;;;;;;5083570;28;20079;-33
2021/03/04 11:55:56;;;;;;;1.00;0.80;;;14.40;61.50;;;;;;5092432;28;20024;-34
2021/03/04 11:58:22;;;;;;;1.48;0.80;;;14.40;61.50;;;;;;5092530;28;20028;-33
2021/03/04 12:00:48;;;;;;;0.95;0.80;;;14.50;61.60;;;;;;5088573;28;20083;-33
2021/03/04 12:03:14;;;;;;;1.13;0.82;;;14.40;61.40;;;;;;5085174;28;20032;-34
2021/03/04 12:05:40;;;;;;;0.75;0.65;;;14.40;61.40;;;;;;5090186;28;20020;-33
2021/03/04 12:08:07;;;;;;;1.48;1.00;;;14.40;61.30;;;;;;5097933;28;20134;-33
2021/03/04 12:10:33;;;;;;;1.00;0.70;;;14.50;61.40;;;;;;5091218;28;20024;-33
2021/03/04 12:12:59;;;;;;;1.10;0.85;;;14.40;61.30;;;;;;5091494;28;20085;-33
2021/03/04 12:15:25;;;;;;;1.45;0.80;;;14.50;61.40;;;;;;5087532;28;20028;-33
2021/03/04 12:17:52;;;;;;;1.30;1.00;;;14.50;61.30;;;;;;5090730;28;20024;-33
2021/03/04 12:20:18;;;;;;;1.20;0.95;;;14.50;61.30;;;;;;5091826;28;20079;-34
2021/03/04 12:22:44;;;;;;;1.80;0.80;;;14.50;61.20;;;;;;5065580;28;20020;-33
2021/03/04 12:25:11;;;;;;;1.08;0.75;;;14.50;61.30;;;;;;5096590;28;20031;-33
2021/03/04 12:27:37;;;;;;;1.17;0.90;;;14.50;61.20;;;;;;5092479;28;20032;-34
2021/03/04 12:30:03;;;;;;;1.23;1.00;;;14.50;62.00;;;;;;5092233;28;20051;-33
2021/03/04 12:32:30;;;;;;;0.82;0.80;;;14.50;61.20;;;;;;5089359;28;20032;-33
2021/03/04 12:34:56;;;;;;;1.08;0.85;;;14.50;61.20;;;;;;5092791;28;20245;-34
2021/03/04 12:37:22;;;;;;;1.50;0.55;;;14.50;61.10;;;;;;5080071;28;20044;-33
2021/03/04 12:39:48;;;;;;;1.05;0.80;;;14.50;61.10;;;;;;5096405;28;20177;-34
2021/03/04 12:42:14;;;;;;;1.08;0.73;;;14.60;61.10;;;;;;5071482;28;20016;-34
2021/03/04 12:44:41;;;;;;;0.93;0.80;;;14.60;61.10;;;;;;5072587;28;20027;-33
2021/03/04 12:47:07;;;;;;;0.90;0.68;;;14.60;61.10;;;;;;5092457;28;20056;-34
2021/03/04 12:49:33;;;;;;;1.45;0.77;;;14.60;61.10;;;;;;5091877;28;20028;-33
2021/03/04 12:51:59;;;;;;;0.63;0.63;;;14.60;61.10;;;;;;5090512;28;20135;-33